sensor_id;sensor_type;location;lat;lon;timestamp;pressure;altitude;pressure_sealevel;temperature;humidity
54948;BME280;41113;41.882;12.530;2023-04-20T00:02:18;100888.25;;;13.69;90.83
54948;BME280;41113;41.882;12.530;2023-04-20T00:04:45;100890.53;;;13.64;91.21
54948;BME280;41113;41.882;12.530;2023-04-20T00:07:10;100887.25;;;13.70;90.41
54948;BME280;41113;41.882;12.530;2023-04-20T00:09:37;100883.25;;;13.74;90.55
54948;BME280;41113;41.882;12.530;2023-04-20T00:12:03;100873.25;;;13.57;91.08
54948;BME280;41113;41.882;12.530;2023-04-20T00:14:29;100870.31;;;13.50;91.98
54948;BME280;41113;41.882;12.530;2023-04-20T00:16:54;100872.16;;;13.50;92.12
54948;BME280;41113;41.882;12.530;2023-04-20T00:19:20;100856.59;;;13.44;91.68
54948;BME280;41113;41.882;12.530;2023-04-20T00:21:46;100858.03;;;13.38;91.87
54948;BME280;41113;41.882;12.530;2023-04-20T00:24:14;100854.34;;;13.39;92.59
54948;BME280;41113;41.882;12.530;2023-04-20T00:26:39;100847.78;;;13.42;91.89
54948;BME280;41113;41.882;12.530;2023-04-20T00:29:05;100841.69;;;13.39;92.53
54948;BME280;41113;41.882;12.530;2023-04-20T00:31:31;100842.69;;;13.38;92.52
54948;BME280;41113;41.882;12.530;2023-04-20T00:33:56;100843.53;;;13.39;91.78
54948;BME280;41113;41.882;12.530;2023-04-20T00:36:22;100835.34;;;13.31;92.12
54948;BME280;41113;41.882;12.530;2023-04-20T00:38:47;100831.00;;;13.20;93.20
54948;BME280;41113;41.882;12.530;2023-04-20T00:41:14;100825.19;;;13.15;93.24
54948;BME280;41113;41.882;12.530;2023-04-20T00:43:51;100832.84;;;13.20;93.13
54948;BME280;41113;41.882;12.530;2023-04-20T00:46:17;100824.31;;;13.15;92.94
54948;BME280;41113;41.882;12.530;2023-04-20T00:48:43;100828.59;;;13.17;92.52
54948;BME280;41113;41.882;12.530;2023-04-20T00:51:08;100813.28;;;13.18;92.79
54948;BME280;41113;41.882;12.530;2023-04-20T00:53:35;100814.16;;;13.08;93.33
54948;BME280;41113;41.882;12.530;2023-04-20T00:56:00;100817.00;;;13.07;93.26
54948;BME280;41113;41.882;12.530;2023-04-20T00:58:26;100811.91;;;13.04;93.71
54948;BME280;41113;41.882;12.530;2023-04-20T01:00:52;100811.91;;;13.04;92.65
54948;BME280;41113;41.882;12.530;2023-04-20T01:03:17;100810.47;;;13.00;93.06
54948;BME280;41113;41.882;12.530;2023-04-20T01:05:43;100803.38;;;12.99;92.28
54948;BME280;41113;41.882;12.530;2023-04-20T01:08:09;100805.22;;;12.98;92.27
54948;BME280;41113;41.882;12.530;2023-04-20T01:10:35;100799.75;;;12.90;92.21
54948;BME280;41113;41.882;12.530;2023-04-20T01:13:00;100796.78;;;12.84;92.62
54948;BME280;41113;41.882;12.530;2023-04-20T01:15:25;100797.69;;;12.74;93.32
54948;BME280;41113;41.882;12.530;2023-04-20T01:17:51;100797.00;;;12.72;93.56
54948;BME280;41113;41.882;12.530;2023-04-20T01:20:17;100787.91;;;12.73;93.11
54948;BME280;41113;41.882;12.530;2023-04-20T01:22:50;100795.84;;;12.75;92.18
54948;BME280;41113;41.882;12.530;2023-04-20T01:25:17;100788.78;;;12.64;92.56
54948;BME280;41113;41.882;12.530;2023-04-20T01:27:43;100783.69;;;12.61;92.58
54948;BME280;41113;41.882;12.530;2023-04-20T01:30:09;100788.47;;;12.67;92.85
54948;BME280;41113;41.882;12.530;2023-04-20T01:32:35;100789.06;;;12.71;91.89
54948;BME280;41113;41.882;12.530;2023-04-20T01:35:01;100782.53;;;12.73;91.64
54948;BME280;41113;41.882;12.530;2023-04-20T01:37:27;100793.00;;;12.76;91.42
54948;BME280;41113;41.882;12.530;2023-04-20T01:39:53;100792.16;;;12.66;91.45
54948;BME280;41113;41.882;12.530;2023-04-20T01:42:18;100792.78;;;12.51;92.68
54948;BME280;41113;41.882;12.530;2023-04-20T01:44:43;100791.13;;;12.40;93.11
54948;BME280;41113;41.882;12.530;2023-04-20T01:47:09;100788.25;;;12.51;93.06
54948;BME280;41113;41.882;12.530;2023-04-20T01:49:34;100780.28;;;12.59;92.87
54948;BME280;41113;41.882;12.530;2023-04-20T01:52:01;100778.59;;;12.58;92.75
54948;BME280;41113;41.882;12.530;2023-04-20T01:54:26;100783.13;;;12.58;92.33
54948;BME280;41113;41.882;12.530;2023-04-20T01:56:51;100775.78;;;12.50;92.12
54948;BME280;41113;41.882;12.530;2023-04-20T01:59:17;100778.06;;;12.45;92.95
54948;BME280;41113;41.882;12.530;2023-04-20T02:01:42;100778.38;;;12.42;93.27
54948;BME280;41113;41.882;12.530;2023-04-20T02:04:07;100779.06;;;12.44;93.43
54948;BME280;41113;41.882;12.530;2023-04-20T02:06:33;100764.59;;;12.45;93.28
54948;BME280;41113;41.882;12.530;2023-04-20T02:08:58;100782.56;;;12.54;92.89
54948;BME280;41113;41.882;12.530;2023-04-20T02:11:23;100773.19;;;12.58;91.95
54948;BME280;41113;41.882;12.530;2023-04-20T02:13:50;100774.50;;;12.54;91.67
54948;BME280;41113;41.882;12.530;2023-04-20T02:16:16;100774.91;;;12.59;91.58
54948;BME280;41113;41.882;12.530;2023-04-20T02:18:43;100771.78;;;12.54;92.13
54948;BME280;41113;41.882;12.530;2023-04-20T02:21:10;100766.81;;;12.59;92.00
54948;BME280;41113;41.882;12.530;2023-04-20T02:23:35;100771.84;;;12.44;92.25
54948;BME280;41113;41.882;12.530;2023-04-20T02:26:01;100768.59;;;12.41;93.03
54948;BME280;41113;41.882;12.530;2023-04-20T02:28:26;100757.66;;;12.42;92.70
54948;BME280;41113;41.882;12.530;2023-04-20T02:30:51;100761.91;;;12.45;92.70
54948;BME280;41113;41.882;12.530;2023-04-20T02:33:17;100761.34;;;12.41;92.56
54948;BME280;41113;41.882;12.530;2023-04-20T02:35:42;100763.66;;;12.36;93.05
54948;BME280;41113;41.882;12.530;2023-04-20T02:38:07;100757.25;;;12.28;93.42
54948;BME280;41113;41.882;12.530;2023-04-20T02:40:33;100758.16;;;12.19;93.97
54948;BME280;41113;41.882;12.530;2023-04-20T02:42:58;100763.66;;;12.27;94.20
54948;BME280;41113;41.882;12.530;2023-04-20T02:45:24;100758.25;;;12.27;93.82
54948;BME280;41113;41.882;12.530;2023-04-20T02:47:49;100765.34;;;12.28;93.46
54948;BME280;41113;41.882;12.530;2023-04-20T02:50:15;100757.97;;;12.30;93.43
54948;BME280;41113;41.882;12.530;2023-04-20T02:52:40;100756.84;;;12.23;93.94
54948;BME280;41113;41.882;12.530;2023-04-20T02:55:06;100758.03;;;12.10;95.17
54948;BME280;41113;41.882;12.530;2023-04-20T02:57:32;100765.25;;;12.00;96.13
54948;BME280;41113;41.882;12.530;2023-04-20T02:59:57;100760.28;;;11.96;96.53
54948;BME280;41113;41.882;12.530;2023-04-20T03:02:22;100772.50;;;11.90;96.74
54948;BME280;41113;41.882;12.530;2023-04-20T03:04:48;100767.13;;;11.80;97.33
54948;BME280;41113;41.882;12.530;2023-04-20T03:07:13;100764.84;;;11.86;96.78
54948;BME280;41113;41.882;12.530;2023-04-20T03:09:39;100762.00;;;11.87;96.75
54948;BME280;41113;41.882;12.530;2023-04-20T03:12:05;100762.25;;;11.65;97.66
54948;BME280;41113;41.882;12.530;2023-04-20T03:14:30;100776.28;;;11.59;97.80
54948;BME280;41113;41.882;12.530;2023-04-20T03:16:56;100762.81;;;11.59;97.78
54948;BME280;41113;41.882;12.530;2023-04-20T03:19:22;100770.91;;;11.59;97.69
54948;BME280;41113;41.882;12.530;2023-04-20T03:21:48;100768.50;;;11.56;97.87
54948;BME280;41113;41.882;12.530;2023-04-20T03:24:13;100774.16;;;11.43;98.68
54948;BME280;41113;41.882;12.530;2023-04-20T03:26:39;100774.69;;;11.37;98.64
54948;BME280;41113;41.882;12.530;2023-04-20T03:29:05;100769.91;;;11.40;98.94
54948;BME280;41113;41.882;12.530;2023-04-20T03:31:30;100772.13;;;11.35;98.50
54948;BME280;41113;41.882;12.530;2023-04-20T03:33:56;100769.91;;;11.40;98.38
54948;BME280;41113;41.882;12.530;2023-04-20T03:36:21;100769.91;;;11.40;98.10
54948;BME280;41113;41.882;12.530;2023-04-20T03:38:48;100767.91;;;11.42;97.70
54948;BME280;41113;41.882;12.530;2023-04-20T03:41:13;100761.00;;;11.49;97.06
54948;BME280;41113;41.882;12.530;2023-04-20T03:43:39;100769.34;;;11.46;97.06
54948;BME280;41113;41.882;12.530;2023-04-20T03:46:06;100762.97;;;11.47;96.57
54948;BME280;41113;41.882;12.530;2023-04-20T03:48:32;100775.28;;;11.60;96.51
54948;BME280;41113;41.882;12.530;2023-04-20T03:50:57;100762.53;;;11.62;95.59
54948;BME280;41113;41.882;12.530;2023-04-20T03:53:23;100760.28;;;11.47;95.62
54948;BME280;41113;41.882;12.530;2023-04-20T03:55:48;100771.47;;;11.43;96.39
54948;BME280;41113;41.882;12.530;2023-04-20T03:58:14;100772.44;;;11.51;96.04
54948;BME280;41113;41.882;12.530;2023-04-20T04:00:39;100766.50;;;11.58;95.67
54948;BME280;41113;41.882;12.530;2023-04-20T04:03:05;100769.34;;;11.56;95.40
54948;BME280;41113;41.882;12.530;2023-04-20T04:05:30;100775.00;;;11.63;95.11
54948;BME280;41113;41.882;12.530;2023-04-20T04:07:56;100778.97;;;11.49;95.20
54948;BME280;41113;41.882;12.530;2023-04-20T04:10:21;100789.44;;;11.42;96.03
54948;BME280;41113;41.882;12.530;2023-04-20T04:12:46;100781.47;;;11.31;96.40
54948;BME280;41113;41.882;12.530;2023-04-20T04:15:12;100795.91;;;11.30;96.74
54948;BME280;41113;41.882;12.530;2023-04-20T04:17:37;100793.41;;;11.38;96.49
54948;BME280;41113;41.882;12.530;2023-04-20T04:20:04;100795.19;;;11.28;96.12
54948;BME280;41113;41.882;12.530;2023-04-20T04:22:32;100800.41;;;11.20;96.64
54948;BME280;41113;41.882;12.530;2023-04-20T04:24:58;100792.19;;;11.12;96.84
54948;BME280;41113;41.882;12.530;2023-04-20T04:27:23;100798.41;;;11.12;96.80
54948;BME280;41113;41.882;12.530;2023-04-20T04:29:48;100791.34;;;11.11;96.36
54948;BME280;41113;41.882;12.530;2023-04-20T04:32:14;100805.91;;;11.09;96.26
54948;BME280;41113;41.882;12.530;2023-04-20T04:34:40;100800.84;;;11.25;96.73
54948;BME280;41113;41.882;12.530;2023-04-20T04:37:09;100796.31;;;11.16;96.16
54948;BME280;41113;41.882;12.530;2023-04-20T04:39:35;100796.03;;;11.19;96.69
54948;BME280;41113;41.882;12.530;2023-04-20T04:42:00;100797.88;;;11.18;96.16
54948;BME280;41113;41.882;12.530;2023-04-20T04:44:26;100798.44;;;11.22;96.02
54948;BME280;41113;41.882;12.530;2023-04-20T04:46:52;100790.53;;;11.30;95.65
54948;BME280;41113;41.882;12.530;2023-04-20T04:49:18;100788.59;;;11.51;95.10
54948;BME280;41113;41.882;12.530;2023-04-20T04:51:44;100796.72;;;12.09;92.76
54948;BME280;41113;41.882;12.530;2023-04-20T04:54:11;100798.78;;;12.35;88.82
54948;BME280;41113;41.882;12.530;2023-04-20T04:56:36;100794.69;;;12.21;89.67
54948;BME280;41113;41.882;12.530;2023-04-20T04:59:02;100805.47;;;12.77;87.10
54948;BME280;41113;41.882;12.530;2023-04-20T05:01:27;100794.66;;;12.87;86.29
54948;BME280;41113;41.882;12.530;2023-04-20T05:03:52;100802.34;;;13.82;82.55
54948;BME280;41113;41.882;12.530;2023-04-20T05:06:17;100813.06;;;14.53;77.33
54948;BME280;41113;41.882;12.530;2023-04-20T05:08:45;100810.88;;;14.57;77.00
54948;BME280;41113;41.882;12.530;2023-04-20T05:11:10;100806.81;;;14.79;74.17
54948;BME280;41113;41.882;12.530;2023-04-20T05:13:35;100805.84;;;15.72;73.17
54948;BME280;41113;41.882;12.530;2023-04-20T05:16:01;100808.06;;;16.26;67.97
54948;BME280;41113;41.882;12.530;2023-04-20T05:18:26;100813.31;;;16.35;66.83
54948;BME280;41113;41.882;12.530;2023-04-20T05:20:51;100809.25;;;16.23;67.53
54948;BME280;41113;41.882;12.530;2023-04-20T05:23:17;100810.44;;;15.96;68.24
54948;BME280;41113;41.882;12.530;2023-04-20T05:25:45;100810.03;;;15.16;71.26
54948;BME280;41113;41.882;12.530;2023-04-20T05:28:11;100819.66;;;14.77;73.68
54948;BME280;41113;41.882;12.530;2023-04-20T05:30:36;100822.88;;;15.14;74.35
54948;BME280;41113;41.882;12.530;2023-04-20T05:33:02;100825.16;;;15.85;71.35
54948;BME280;41113;41.882;12.530;2023-04-20T05:35:27;100813.81;;;16.39;69.76
54948;BME280;41113;41.882;12.530;2023-04-20T05:37:53;100821.13;;;15.98;71.10
54948;BME280;41113;41.882;12.530;2023-04-20T05:40:18;100819.50;;;15.20;72.13
54948;BME280;41113;41.882;12.530;2023-04-20T05:42:44;100820.28;;;14.45;74.41
54948;BME280;41113;41.882;12.530;2023-04-20T05:45:10;100818.53;;;13.82;77.64
54948;BME280;41113;41.882;12.530;2023-04-20T05:47:35;100820.00;;;13.31;80.00
54948;BME280;41113;41.882;12.530;2023-04-20T05:50:00;100818.75;;;12.89;83.06
54948;BME280;41113;41.882;12.530;2023-04-20T05:52:26;100818.94;;;12.77;84.14
54948;BME280;41113;41.882;12.530;2023-04-20T05:54:51;100818.16;;;12.95;83.40
54948;BME280;41113;41.882;12.530;2023-04-20T05:57:17;100821.78;;;13.13;82.99
54948;BME280;41113;41.882;12.530;2023-04-20T05:59:42;100816.38;;;13.23;82.48
54948;BME280;41113;41.882;12.530;2023-04-20T06:02:08;100822.25;;;12.99;82.68
54948;BME280;41113;41.882;12.530;2023-04-20T06:04:33;100823.84;;;12.92;83.79
54948;BME280;41113;41.882;12.530;2023-04-20T06:06:58;100819.22;;;12.84;84.02
54948;BME280;41113;41.882;12.530;2023-04-20T06:09:25;100828.38;;;13.01;84.50
54948;BME280;41113;41.882;12.530;2023-04-20T06:11:50;100826.06;;;15.52;77.97
54948;BME280;41113;41.882;12.530;2023-04-20T06:14:16;100820.03;;;17.66;68.35
54948;BME280;41113;41.882;12.530;2023-04-20T06:16:41;100811.84;;;18.95;63.92
54948;BME280;41113;41.882;12.530;2023-04-20T06:19:06;100823.25;;;19.35;59.84
54948;BME280;41113;41.882;12.530;2023-04-20T06:21:34;100830.66;;;18.07;65.01
54948;BME280;41113;41.882;12.530;2023-04-20T06:23:59;100830.75;;;17.21;66.83
54948;BME280;41113;41.882;12.530;2023-04-20T06:26:25;100831.25;;;16.20;70.64
54948;BME280;41113;41.882;12.530;2023-04-20T06:28:50;100840.41;;;16.76;69.66
54948;BME280;41113;41.882;12.530;2023-04-20T06:31:17;100840.41;;;16.76;68.90
54948;BME280;41113;41.882;12.530;2023-04-20T06:33:43;100833.50;;;17.13;68.02
54948;BME280;41113;41.882;12.530;2023-04-20T06:36:08;100838.66;;;16.99;67.42
54948;BME280;41113;41.882;12.530;2023-04-20T06:38:34;100836.13;;;17.37;67.43
54948;BME280;41113;41.882;12.530;2023-04-20T06:41:01;100831.47;;;17.15;67.24
54948;BME280;41113;41.882;12.530;2023-04-20T06:43:29;100833.97;;;17.32;67.11
54948;BME280;41113;41.882;12.530;2023-04-20T06:45:55;100836.28;;;16.88;68.04
54948;BME280;41113;41.882;12.530;2023-04-20T06:48:21;100834.09;;;16.84;67.38
54948;BME280;41113;41.882;12.530;2023-04-20T06:50:49;100834.84;;;16.37;69.00
54948;BME280;41113;41.882;12.530;2023-04-20T06:53:15;100829.06;;;16.15;70.21
54948;BME280;41113;41.882;12.530;2023-04-20T06:55:41;100830.25;;;16.70;69.52
54948;BME280;41113;41.882;12.530;2023-04-20T06:58:06;100825.41;;;17.43;67.33
54948;BME280;41113;41.882;12.530;2023-04-20T07:00:34;100825.75;;;17.80;65.89
54948;BME280;41113;41.882;12.530;2023-04-20T07:03:00;100822.00;;;17.81;66.03
54948;BME280;41113;41.882;12.530;2023-04-20T07:05:26;100829.47;;;17.79;64.87
54948;BME280;41113;41.882;12.530;2023-04-20T07:07:53;100835.50;;;17.27;66.35
54948;BME280;41113;41.882;12.530;2023-04-20T07:10:23;100836.63;;;17.01;66.70
54948;BME280;41113;41.882;12.530;2023-04-20T07:12:48;100842.91;;;17.41;67.11
54948;BME280;41113;41.882;12.530;2023-04-20T07:15:15;100841.56;;;17.37;65.35
54948;BME280;41113;41.882;12.530;2023-04-20T07:17:40;100842.47;;;17.21;66.41
54948;BME280;41113;41.882;12.530;2023-04-20T07:20:06;100841.63;;;17.29;66.79
54948;BME280;41113;41.882;12.530;2023-04-20T07:22:36;100843.41;;;17.45;66.76
54948;BME280;41113;41.882;12.530;2023-04-20T07:25:04;100837.13;;;17.44;66.43
54948;BME280;41113;41.882;12.530;2023-04-20T07:27:33;100832.41;;;17.38;66.58
54948;BME280;41113;41.882;12.530;2023-04-20T07:30:00;100834.81;;;17.33;67.71
54948;BME280;41113;41.882;12.530;2023-04-20T07:32:26;100836.97;;;17.77;66.98
54948;BME280;41113;41.882;12.530;2023-04-20T07:34:51;100827.34;;;17.97;65.83
54948;BME280;41113;41.882;12.530;2023-04-20T07:37:17;100838.44;;;17.56;67.02
54948;BME280;41113;41.882;12.530;2023-04-20T07:39:43;100836.41;;;17.50;68.16
54948;BME280;41113;41.882;12.530;2023-04-20T07:42:08;100839.09;;;18.12;66.68
54948;BME280;41113;41.882;12.530;2023-04-20T07:44:34;100833.97;;;18.17;66.11
54948;BME280;41113;41.882;12.530;2023-04-20T07:47:00;100832.75;;;18.20;65.39
54948;BME280;41113;41.882;12.530;2023-04-20T07:49:25;100831.31;;;18.32;65.67
54948;BME280;41113;41.882;12.530;2023-04-20T07:51:51;100828.25;;;18.50;64.67
54948;BME280;41113;41.882;12.530;2023-04-20T07:54:16;100829.69;;;18.60;64.19
54948;BME280;41113;41.882;12.530;2023-04-20T07:56:42;100832.94;;;18.93;63.41
54948;BME280;41113;41.882;12.530;2023-04-20T07:59:08;100833.47;;;19.18;62.35
54948;BME280;41113;41.882;12.530;2023-04-20T08:01:33;100824.41;;;19.26;62.14
54948;BME280;41113;41.882;12.530;2023-04-20T08:03:59;100822.50;;;18.82;61.55
54948;BME280;41113;41.882;12.530;2023-04-20T08:06:24;100824.66;;;18.34;63.42
54948;BME280;41113;41.882;12.530;2023-04-20T08:08:52;100824.00;;;18.32;64.32
54948;BME280;41113;41.882;12.530;2023-04-20T08:11:17;100829.72;;;18.38;62.77
54948;BME280;41113;41.882;12.530;2023-04-20T08:13:43;100828.72;;;18.53;64.19
54948;BME280;41113;41.882;12.530;2023-04-20T08:16:08;100826.63;;;18.78;63.42
54948;BME280;41113;41.882;12.530;2023-04-20T08:18:33;100822.97;;;18.33;62.28
54948;BME280;41113;41.882;12.530;2023-04-20T08:20:59;100825.16;;;17.92;63.21
54948;BME280;41113;41.882;12.530;2023-04-20T08:23:25;100823.88;;;18.03;64.21
54948;BME280;41113;41.882;12.530;2023-04-20T08:25:56;100822.72;;;17.75;63.07
54948;BME280;41113;41.882;12.530;2023-04-20T08:28:22;100826.53;;;17.57;62.65
54948;BME280;41113;41.882;12.530;2023-04-20T08:30:48;100825.44;;;17.75;63.68
54948;BME280;41113;41.882;12.530;2023-04-20T08:33:14;100828.28;;;18.04;63.00
54948;BME280;41113;41.882;12.530;2023-04-20T08:35:39;100824.06;;;18.01;61.77
54948;BME280;41113;41.882;12.530;2023-04-20T08:38:06;100818.75;;;17.85;60.90
54948;BME280;41113;41.882;12.530;2023-04-20T08:40:31;100817.41;;;17.81;62.20
54948;BME280;41113;41.882;12.530;2023-04-20T08:42:57;100821.03;;;18.19;61.95
54948;BME280;41113;41.882;12.530;2023-04-20T08:45:26;100818.84;;;18.38;61.15
54948;BME280;41113;41.882;12.530;2023-04-20T08:47:52;100814.06;;;18.77;60.61
54948;BME280;41113;41.882;12.530;2023-04-20T08:50:18;100811.25;;;18.71;60.13
54948;BME280;41113;41.882;12.530;2023-04-20T08:52:44;100810.50;;;19.06;59.58
54948;BME280;41113;41.882;12.530;2023-04-20T08:55:17;100808.97;;;19.33;58.56
54948;BME280;41113;41.882;12.530;2023-04-20T08:57:42;100803.91;;;19.30;58.29
54948;BME280;41113;41.882;12.530;2023-04-20T09:00:09;100800.91;;;19.54;57.93
54948;BME280;41113;41.882;12.530;2023-04-20T09:02:36;100807.47;;;19.81;57.43
54948;BME280;41113;41.882;12.530;2023-04-20T09:05:12;100801.84;;;20.04;57.13
54948;BME280;41113;41.882;12.530;2023-04-20T09:07:37;100794.44;;;20.19;56.57
54948;BME280;41113;41.882;12.530;2023-04-20T09:10:03;100799.34;;;20.09;56.31
54948;BME280;41113;41.882;12.530;2023-04-20T09:12:39;100794.22;;;19.57;55.34
54948;BME280;41113;41.882;12.530;2023-04-20T09:15:05;100801.06;;;19.38;58.24
54948;BME280;41113;41.882;12.530;2023-04-20T09:17:33;100789.00;;;19.11;58.56
54948;BME280;41113;41.882;12.530;2023-04-20T09:19:58;100793.44;;;18.98;58.95
54948;BME280;41113;41.882;12.530;2023-04-20T09:22:32;100795.94;;;19.14;58.48
54948;BME280;41113;41.882;12.530;2023-04-20T09:24:58;100782.66;;;19.40;57.70
54948;BME280;41113;41.882;12.530;2023-04-20T09:27:24;100779.81;;;19.48;57.43
54948;BME280;41113;41.882;12.530;2023-04-20T09:29:59;100781.84;;;19.76;56.66
54948;BME280;41113;41.882;12.530;2023-04-20T09:32:26;100778.13;;;19.62;55.62
54948;BME280;41113;41.882;12.530;2023-04-20T09:34:52;100778.31;;;19.82;55.50
54948;BME280;41113;41.882;12.530;2023-04-20T09:37:19;100780.81;;;19.98;53.96
54948;BME280;41113;41.882;12.530;2023-04-20T09:39:47;100778.00;;;19.70;53.80
54948;BME280;41113;41.882;12.530;2023-04-20T09:42:13;100773.78;;;19.32;51.15
54948;BME280;41113;41.882;12.530;2023-04-20T09:44:40;100771.25;;;19.15;53.00
54948;BME280;41113;41.882;12.530;2023-04-20T09:47:06;100779.53;;;19.22;55.10
54948;BME280;41113;41.882;12.530;2023-04-20T09:49:32;100768.50;;;19.30;54.61
54948;BME280;41113;41.882;12.530;2023-04-20T09:52:01;100767.22;;;19.47;55.38
54948;BME280;41113;41.882;12.530;2023-04-20T09:54:28;100767.41;;;19.82;54.91
54948;BME280;41113;41.882;12.530;2023-04-20T09:56:53;100764.94;;;20.08;54.44
54948;BME280;41113;41.882;12.530;2023-04-20T09:59:20;100754.81;;;20.24;54.00
54948;BME280;41113;41.882;12.530;2023-04-20T10:01:46;100755.56;;;20.39;53.71
54948;BME280;41113;41.882;12.530;2023-04-20T10:04:11;100763.25;;;20.50;53.31
54948;BME280;41113;41.882;12.530;2023-04-20T10:06:39;100757.78;;;20.50;53.20
54948;BME280;41113;41.882;12.530;2023-04-20T10:09:06;100758.34;;;20.17;51.84
54948;BME280;41113;41.882;12.530;2023-04-20T10:11:39;100749.78;;;19.56;51.29
54948;BME280;41113;41.882;12.530;2023-04-20T10:14:19;100751.81;;;19.91;53.43
54948;BME280;41113;41.882;12.530;2023-04-20T10:16:45;100746.22;;;19.99;53.43
54948;BME280;41113;41.882;12.530;2023-04-20T10:19:22;100752.38;;;20.07;52.84
54948;BME280;41113;41.882;12.530;2023-04-20T10:21:49;100752.97;;;20.31;52.43
54948;BME280;41113;41.882;12.530;2023-04-20T10:24:27;100752.31;;;20.50;49.55
54948;BME280;41113;41.882;12.530;2023-04-20T10:26:53;100748.47;;;20.72;51.37
54948;BME280;41113;41.882;12.530;2023-04-20T10:29:22;100753.84;;;20.94;48.69
54948;BME280;41113;41.882;12.530;2023-04-20T10:31:51;100753.47;;;21.10;50.79
54948;BME280;41113;41.882;12.530;2023-04-20T10:34:28;100740.00;;;21.02;49.06
54948;BME280;41113;41.882;12.530;2023-04-20T10:36:53;100738.72;;;20.98;51.32
54948;BME280;41113;41.882;12.530;2023-04-20T10:39:19;100733.63;;;20.81;51.98
54948;BME280;41113;41.882;12.530;2023-04-20T10:41:53;100730.94;;;20.88;50.91
54948;BME280;41113;41.882;12.530;2023-04-20T10:44:19;100735.22;;;20.69;52.29
54948;BME280;41113;41.882;12.530;2023-04-20T10:46:48;100724.50;;;20.68;51.48
54948;BME280;41113;41.882;12.530;2023-04-20T10:49:14;100726.59;;;20.38;51.79
54948;BME280;41113;41.882;12.530;2023-04-20T10:51:51;100715.88;;;20.36;49.88
54948;BME280;41113;41.882;12.530;2023-04-20T10:54:18;100717.00;;;20.42;52.18
54948;BME280;41113;41.882;12.530;2023-04-20T10:56:48;100715.59;;;20.25;51.67
54948;BME280;41113;41.882;12.530;2023-04-20T10:59:22;100709.19;;;20.11;51.49
54948;BME280;41113;41.882;12.530;2023-04-20T11:01:48;100701.31;;;20.23;52.54
54948;BME280;41113;41.882;12.530;2023-04-20T11:04:14;100708.28;;;20.32;52.11
54948;BME280;41113;41.882;12.530;2023-04-20T11:06:42;100693.84;;;20.38;52.19
54948;BME280;41113;41.882;12.530;2023-04-20T11:09:22;100691.44;;;20.22;49.99
54948;BME280;41113;41.882;12.530;2023-04-20T11:12:01;100695.91;;;20.01;51.49
54948;BME280;41113;41.882;12.530;2023-04-20T11:14:27;100683.16;;;20.08;52.80
54948;BME280;41113;41.882;12.530;2023-04-20T11:16:54;100684.25;;;20.42;52.17
54948;BME280;41113;41.882;12.530;2023-04-20T11:19:28;100680.97;;;20.53;49.58
54948;BME280;41113;41.882;12.530;2023-04-20T11:21:53;100676.19;;;20.62;51.06
54948;BME280;41113;41.882;12.530;2023-04-20T11:24:24;100677.28;;;20.67;49.91
54948;BME280;41113;41.882;12.530;2023-04-20T11:26:51;100672.31;;;20.84;50.33
54948;BME280;41113;41.882;12.530;2023-04-20T11:31:59;100667.56;;;21.06;49.86
54948;BME280;41113;41.882;12.530;2023-04-20T11:34:25;100670.97;;;21.15;49.24
54948;BME280;41113;41.882;12.530;2023-04-20T11:36:51;100669.91;;;21.16;48.84
54948;BME280;41113;41.882;12.530;2023-04-20T11:39:27;100666.97;;;21.17;47.66
54948;BME280;41113;41.882;12.530;2023-04-20T11:41:56;100655.16;;;21.03;49.99
54948;BME280;41113;41.882;12.530;2023-04-20T11:44:25;100642.41;;;20.63;50.17
54948;BME280;41113;41.882;12.530;2023-04-20T11:46:51;100654.59;;;20.32;52.10
54948;BME280;41113;41.882;12.530;2023-04-20T11:49:19;100648.75;;;20.07;52.84
54948;BME280;41113;41.882;12.530;2023-04-20T11:51:45;100648.53;;;19.81;53.35
54948;BME280;41113;41.882;12.530;2023-04-20T11:54:12;100648.41;;;19.61;53.64
54948;BME280;41113;41.882;12.530;2023-04-20T11:56:37;100640.91;;;19.70;53.66
54948;BME280;41113;41.882;12.530;2023-04-20T11:59:03;100647.25;;;19.77;53.67
54948;BME280;41113;41.882;12.530;2023-04-20T12:01:29;100644.34;;;19.78;53.73
54948;BME280;41113;41.882;12.530;2023-04-20T12:03:54;100645.16;;;20.00;53.33
54948;BME280;41113;41.882;12.530;2023-04-20T12:06:21;100649.25;;;20.17;52.91
54948;BME280;41113;41.882;12.530;2023-04-20T12:08:47;100644.25;;;20.21;53.07
54948;BME280;41113;41.882;12.530;2023-04-20T12:11:14;100643.34;;;20.14;53.46
54948;BME280;41113;41.882;12.530;2023-04-20T12:13:41;100642.91;;;20.10;53.81
54948;BME280;41113;41.882;12.530;2023-04-20T12:16:07;100641.78;;;19.98;53.80
54948;BME280;41113;41.882;12.530;2023-04-20T12:18:32;100642.66;;;19.77;54.08
54948;BME280;41113;41.882;12.530;2023-04-20T12:20:57;100632.16;;;19.74;53.72
54948;BME280;41113;41.882;12.530;2023-04-20T12:23:24;100634.13;;;19.59;54.54
54948;BME280;41113;41.882;12.530;2023-04-20T12:25:50;100633.09;;;19.60;54.62
54948;BME280;41113;41.882;12.530;2023-04-20T12:28:15;100625.75;;;19.61;54.83
54948;BME280;41113;41.882;12.530;2023-04-20T12:30:41;100627.88;;;19.65;54.76
54948;BME280;41113;41.882;12.530;2023-04-20T12:33:07;100632.75;;;19.70;54.67
54948;BME280;41113;41.882;12.530;2023-04-20T12:35:33;100625.47;;;19.77;54.88
54948;BME280;41113;41.882;12.530;2023-04-20T12:38:00;100624.81;;;19.75;54.77
54948;BME280;41113;41.882;12.530;2023-04-20T12:40:25;100626.25;;;19.71;54.89